• Join FlightAware (Why Join?)
  • Login
  • US Flag 
05:07AM EDT


 

Airport Tracker/Info


-or-


 

Live Flight TrackerFlight Track Log ✈ EGF2754 ✈ 03-May-2012 ✈ KLFT - KDFW

Flight Track Log - Related Links

Times and Time Zones

All times are in EDT time to prevent confusion due to time zone crossing. See the EGF2754 flight status page for this flight to view local times or setup timezone preferences in your user account.

Time Position Orientation Groundspeed Altitude Reporting Facility
EDT Latitude Longitude Course Direction KTS MPH feet Rate Location/Type
08:58AM 30.2178 -92.0080 283° West  Level FlightAware Approximate
08:59AM 30.3081 -92.0291 221° Southwest  Level FlightAware Approximate
09:00AM 30.2369 -92.1011 343° North 221 254 5,100  Level Houston Center
09:01AM 30.3039 -92.1253 342° North 234 269 7,200 2,340 Climbing Houston Center
09:02AM 30.3767 -92.1522 339° North 253 291 9,900 2,160 Climbing Houston Center
09:03AM 30.4475 -92.1839 342° North 266 306 11,600 1,560 Climbing Houston Center
09:04AM 30.5308 -92.2156 341° North 288 331 13,100 1,500 Climbing Houston Center
09:05AM 30.6186 -92.2497 342° North 307 353 14,600 1,440 Climbing Houston Center
09:06AM 30.7081 -92.2842 342° North 329 379 16,000 1,440 Climbing Houston Center
09:07AM 30.7978 -92.3186 341° North 334 384 17,500 1,380 Climbing Houston Center
09:08AM 30.8892 -92.3556 341° North 340 391 18,800 1,380 Climbing Houston Center
09:09AM 30.9767 -92.3900 341° North 340 391 20,300 1,500 Climbing Houston Center
09:10AM 31.0683 -92.4269 341° North 340 391 21,800 1,260 Climbing Houston Center
09:11AM 31.1411 -92.4567 339° North 340 391 22,900 1,260 Climbing Houston Center
09:12AM 31.2472 -92.5036 301° West 354 407 24,400 1,500 Climbing Houston Center
09:13AM 31.2967 -92.6011 293° West 347 399 25,900 1,080 Climbing Houston Center
09:15AM 31.3922 -92.8603 294° West 363 418 28,000 600 Climbing Fort Worth Center
09:16AM 31.4361 -92.9775 294° West 380 437 28,000  Level Fort Worth Center
09:17AM 31.4775 -93.0875 294° West 380 437 28,000  Level Fort Worth Center
09:18AM 31.5208 -93.2000 294° West 380 437 28,000  Level Fort Worth Center
09:19AM 31.5642 -93.3125 292° West 380 437 28,000  Level Fort Worth Center
09:20AM 31.6056 -93.4303 293° West 385 443 28,000  Level Fort Worth Center
09:21AM 31.6489 -93.5481 288° West 390 449 28,000  Level Fort Worth Center
09:22AM 31.6817 -93.6686 282° West 390 449 28,000  Level Fort Worth Center
09:23AM 31.7042 -93.7922 283° West 385 443 28,000  Level Fort Worth Center
09:24AM 31.7286 -93.9158 285° West 385 443 28,000  Level Fort Worth Center
09:25AM 31.7547 -94.0344 285° West 390 449 28,000  Level Fort Worth Center
09:26AM 31.7783 -94.1389 284° West 384 442 28,000  Level Fort Worth Center
09:27AM 31.8044 -94.2625 284° West 384 442 28,000  Level Fort Worth Center
09:28AM 31.8283 -94.3789 284° West 384 442 28,000  Level Fort Worth Center
09:29AM 31.8542 -94.5006 283° West 384 442 28,000  Level Fort Worth Center
09:30AM 31.8778 -94.6219 283° West 384 442 28,000  Level Fort Worth Center
09:31AM 31.9011 -94.7461 284° West 389 448 28,000  Level Fort Worth Center
09:32AM 31.9289 -94.8750 282° West 394 453 28,000  Level Fort Worth Center
09:33AM 31.9525 -95.0067 283° West 405 466 28,000  Level Fort Worth Center
09:34AM 31.9822 -95.1553 283° West 416 479 28,000  Level Fort Worth Center
09:35AM 32.0075 -95.2869 283° West 421 484 28,000  Level Fort Worth Center
09:36AM 32.0328 -95.4186 282° West 421 484 28,000  Level Fort Worth Center
09:37AM 32.0578 -95.5528 294° West 421 484 28,000  Level Fort Worth Center
09:38AM 32.0989 -95.6600 293° West 411 473 28,000  Level Fort Worth Center
09:39AM 32.1467 -95.7939 293° West 406 467 28,000 -60 Level Fort Worth Center
09:40AM 32.1919 -95.9183 293° West 401 461 27,900 -1,080 Descending Fort Worth Center
09:41AM 32.2328 -96.0306 293° West 390 449 25,900 -2,400 Descending Fort Worth Center
09:42AM 32.2739 -96.1456 299° West 380 437 23,100 -2,880 Descending Fort Worth Center
09:43AM 32.3008 -96.2042 292° West 383 441 21,300 -2,880 Descending FAA TRACON SMA TRACON (SMA)
09:44AM 32.3250 -96.2733 291° West 371 427 19,500 -2,700 Descending FAA TRACON SMA TRACON (SMA)
09:44AM 32.3503 -96.3497 294° West 358 412 17,700 -2,520 Descending FAA TRACON SMA TRACON (SMA)
09:45AM 32.3772 -96.4228 307° West 358 412 16,200 -2,340 Descending FAA TRACON SMA TRACON (SMA)
09:46AM 32.4183 -96.4875 314° West 361 415 14,600 -2,340 Descending FAA TRACON SMA TRACON (SMA)
09:46AM 32.4611 -96.5392 314° West 356 410 13,100 -2,280 Descending FAA TRACON SMA TRACON (SMA)
09:47AM 32.5075 -96.5967 316° Northwest 347 399 11,600 -1,680 Descending FAA TRACON SMA TRACON (SMA)
09:48AM 32.5542 -96.6503 315° West 337 388 10,900 -540 Descending FAA TRACON SMA TRACON (SMA)
09:48AM 32.5953 -96.6986 314° West 337 388 10,900  Level FAA TRACON SMA TRACON (SMA)
09:49AM 32.6400 -96.7539 315° West 335 386 10,900  Level FAA TRACON SMA TRACON (SMA)
09:50AM 32.6794 -96.8000 315° West 323 372 10,900  Level FAA TRACON SMA TRACON (SMA)
09:50AM 32.7169 -96.8450 314° West 269 310 10,900  Level FAA TRACON SMA TRACON (SMA)
09:51AM 32.7506 -96.8869 310° West 251 289 10,900  Level FAA TRACON SMA TRACON (SMA)
09:52AM 32.7811 -96.9303 307° West 251 289 10,900 -600 Level FAA TRACON SMA TRACON (SMA)
09:52AM 32.8067 -96.9711 307° West 249 287 10,100 -1,320 Descending FAA TRACON SMA TRACON (SMA)
09:53AM 32.8367 -97.0183 312° West 247 284 9,200 -1,020 Descending FAA TRACON SMA TRACON (SMA)
09:54AM 32.8656 -97.0564 318° Northwest 252 290 8,800 -1,080 Descending FAA TRACON SMA TRACON (SMA)
09:54AM 32.9053 -97.0986 324° Northwest 280 322 7,800 -1,620 Descending FAA TRACON SMA TRACON (SMA)
09:55AM 32.9397 -97.1281 347° North 234 269 6,700 -1,500 Descending FAA TRACON SMA TRACON (SMA)
09:56AM 32.9836 -97.1406 North 235 270 5,800 -1,200 Descending FAA TRACON SMA TRACON (SMA)
09:56AM 33.0297 -97.1369 60° Northeast 242 278 5,100 -1,380 Descending FAA TRACON SMA TRACON (SMA)
09:57AM 33.0492 -97.0964 118° Southeast 250 288 4,000 -1,500 Descending FAA TRACON SMA TRACON (SMA)
09:58AM 33.0303 -97.0544 118° Southeast 228 262 3,100 -1,380 Descending FAA TRACON SMA TRACON (SMA)